Mesquite, Nevada
Current Conditions -  °F | °C
As of 11:55 AM on Friday 24 Oct 2014 (Local Time) from KSGU Reporting Station
Clear Clear  
Wind Chill: 72°   Ceiling: Unl
Heat Index: 72°   Visibility: 10mi
Dew Point: 36°   Wind: 0mph
Humidity: 27%   Direction: NA
Pressure: 30.19"   Gusts: NA
Location:  36.8°N, 114.11°W
Report Text: KSGU 241855Z AUTO 00000KT 10SM CLR 22/02 A3019 RMK AO1
Loading
Personal Weather Stations






























Interactive Weather Map New forecast layout! Learn more

10-Day Weather Forecast

Advertisements
Track Severe Weather on mobile